Terminal Aerodrome Forecast
Issued by NWS

Home | Current Version | Previous Version | Text Only | Print | Product List | Glossary On
Versions: 1 2 3 4 5 6 7 8 9 10 11 12 13
000
FTUS42 KGSP 311739
TAFAND
TAF
KAND 311739Z 3118/0118 24005KT P6SM BKN060
     FM312300 28005KT P6SM BKN050
     FM010400 29009KT P6SM OVC040
     FM010900 31012G18KT P6SM VCSH OVC030
     FM011200 33015G27KT 5SM -SHRASN BR OVC025=

USA.gov is the U.S. government's official web portal to all federal, state and local government web resources and services.